createdAt,value
2022-08-20T00:00:05.816Z,17.59
2022-08-20T00:01:05.815Z,17.59
2022-08-20T00:02:05.801Z,17.55
2022-08-20T00:03:05.712Z,17.55
2022-08-20T00:04:05.708Z,17.54
2022-08-20T00:05:05.708Z,17.54
2022-08-20T00:06:05.660Z,17.51
2022-08-20T00:07:05.661Z,17.51
2022-08-20T00:08:07.140Z,17.51
2022-08-20T00:09:06.768Z,17.48
2022-08-20T00:10:05.670Z,17.48
2022-08-20T00:11:05.600Z,17.47
2022-08-20T00:12:06.476Z,17.47
2022-08-20T00:13:05.630Z,17.44
2022-08-20T00:14:05.597Z,17.43
2022-08-20T00:15:05.566Z,17.41
2022-08-20T00:16:05.567Z,17.41
2022-08-20T00:17:05.528Z,17.36
2022-08-20T00:18:05.539Z,17.36
2022-08-20T00:19:05.544Z,17.33
2022-08-20T00:20:05.540Z,17.33
2022-08-20T00:21:05.468Z,17.30
2022-08-20T00:22:06.545Z,17.30
2022-08-20T00:23:10.220Z,17.26
2022-08-20T00:24:06.494Z,17.23
2022-08-20T00:25:05.690Z,17.22
2022-08-20T00:26:05.451Z,17.20
2022-08-20T00:27:05.409Z,17.20
2022-08-20T00:28:05.428Z,17.15
2022-08-20T00:29:05.366Z,17.14
2022-08-20T00:30:05.401Z,17.14
2022-08-20T00:31:05.355Z,17.10
2022-08-20T00:32:05.367Z,17.10
2022-08-20T00:33:05.348Z,17.10
2022-08-20T00:34:05.318Z,17.10
2022-08-20T00:35:05.373Z,17.08
2022-08-20T00:36:05.317Z,17.08
2022-08-20T00:37:05.270Z,17.10
2022-08-20T00:38:05.420Z,17.10
2022-08-20T00:39:05.273Z,17.10
2022-08-20T00:40:05.275Z,17.08
2022-08-20T00:41:06.274Z,17.10
2022-08-20T00:42:05.228Z,17.08
2022-08-20T00:43:06.067Z,17.08
2022-08-20T00:44:05.218Z,17.08
2022-08-20T00:45:05.170Z,17.08
2022-08-20T00:46:05.159Z,17.07
2022-08-20T00:47:05.269Z,17.08
2022-08-20T00:48:06.100Z,17.10
2022-08-20T00:49:05.126Z,17.10
2022-08-20T00:50:05.113Z,17.11
2022-08-20T00:51:05.075Z,17.11
2022-08-20T00:52:05.156Z,17.13
2022-08-20T00:53:05.064Z,17.13
2022-08-20T00:54:05.280Z,17.14
2022-08-20T00:55:05.032Z,17.15
2022-08-20T00:56:05.011Z,17.14
2022-08-20T00:57:05.054Z,17.17
2022-08-20T00:58:05.291Z,17.15
2022-08-20T00:59:06.063Z,17.15
2022-08-20T01:00:06.952Z,17.15
2022-08-20T01:01:05.003Z,17.15
2022-08-20T01:02:05.055Z,17.15
2022-08-20T01:03:04.956Z,17.15
2022-08-20T01:04:04.918Z,17.14
2022-08-20T01:05:04.917Z,17.14
2022-08-20T01:06:04.895Z,17.14
2022-08-20T01:07:04.887Z,17.14
2022-08-20T01:08:04.857Z,17.14
2022-08-20T01:09:04.896Z,17.13
2022-08-20T01:10:04.834Z,17.14
2022-08-20T01:11:04.877Z,17.14
2022-08-20T01:12:04.885Z,17.13
2022-08-20T01:13:04.784Z,17.15
2022-08-20T01:14:04.839Z,17.15
2022-08-20T01:15:04.858Z,17.15
2022-08-20T01:16:04.918Z,17.17
2022-08-20T01:17:04.800Z,17.18
2022-08-20T01:18:04.750Z,17.20
2022-08-20T01:19:04.739Z,17.20
2022-08-20T01:20:05.720Z,17.22
2022-08-20T01:21:04.692Z,17.23
2022-08-20T01:22:04.711Z,17.22
2022-08-20T01:23:04.705Z,17.23
2022-08-20T01:24:04.681Z,17.23
2022-08-20T01:25:04.781Z,17.26
2022-08-20T01:26:04.704Z,17.26
2022-08-20T01:27:04.633Z,17.29
2022-08-20T01:28:04.611Z,17.28
2022-08-20T01:29:04.585Z,17.29
2022-08-20T01:30:06.039Z,17.29
2022-08-20T01:31:04.551Z,17.32
2022-08-20T01:32:04.571Z,17.33
2022-08-20T01:33:04.551Z,17.35
2022-08-20T01:34:04.589Z,17.36
2022-08-20T01:35:04.507Z,17.38
2022-08-20T01:36:04.560Z,17.41
2022-08-20T01:37:04.471Z,17.41
2022-08-20T01:38:04.472Z,17.43
2022-08-20T01:39:04.503Z,17.44
2022-08-20T01:40:04.486Z,17.44
2022-08-20T01:41:04.432Z,17.44
2022-08-20T01:42:04.459Z,17.46
2022-08-20T01:43:04.417Z,17.46
2022-08-20T01:44:04.439Z,17.44
2022-08-20T01:45:04.500Z,17.44
2022-08-20T01:46:04.426Z,17.43
2022-08-20T01:47:04.383Z,17.40
2022-08-20T01:48:04.460Z,17.40
2022-08-20T01:49:04.358Z,17.35
2022-08-20T01:50:05.328Z,17.33
2022-08-20T01:51:05.171Z,17.29
2022-08-20T01:52:04.291Z,17.29
2022-08-20T01:53:05.492Z,17.26
2022-08-20T01:54:04.288Z,17.26
2022-08-20T01:55:04.307Z,17.28
2022-08-20T01:56:04.232Z,17.26
2022-08-20T01:57:04.271Z,17.28
2022-08-20T01:58:04.663Z,17.29
2022-08-20T01:59:04.420Z,17.28
2022-08-20T02:00:04.244Z,17.25
2022-08-20T02:01:04.160Z,17.26
2022-08-20T02:02:04.215Z,17.25
2022-08-20T02:03:04.151Z,17.22
2022-08-20T02:04:04.344Z,17.18
2022-08-20T02:05:04.122Z,17.17
2022-08-20T02:06:04.132Z,17.14
2022-08-20T02:07:04.161Z,17.11
2022-08-20T02:08:04.131Z,17.08
2022-08-20T02:09:04.070Z,17.07
2022-08-20T02:10:04.084Z,17.06
2022-08-20T02:11:04.083Z,17.06
2022-08-20T02:12:04.019Z,17.04
2022-08-20T02:13:04.027Z,17.06
2022-08-20T02:14:04.024Z,17.07
2022-08-20T02:15:03.983Z,17.06
2022-08-20T02:16:04.068Z,17.06
2022-08-20T02:17:03.968Z,17.06
2022-08-20T02:18:04.019Z,17.04
2022-08-20T02:19:04.166Z,17.04
2022-08-20T02:20:03.941Z,17.03
2022-08-20T02:21:03.917Z,16.99
2022-08-20T02:22:03.916Z,16.98
2022-08-20T02:23:03.876Z,16.99
2022-08-20T02:24:03.912Z,17.00
2022-08-20T02:25:03.874Z,17.04
2022-08-20T02:26:03.879Z,17.10
2022-08-20T02:27:03.831Z,17.17
2022-08-20T02:28:03.807Z,17.25
2022-08-20T02:29:03.859Z,17.32
2022-08-20T02:30:03.821Z,17.36
2022-08-20T02:31:03.788Z,17.36
2022-08-20T02:32:24.873Z,17.41
2022-08-20T02:33:04.753Z,17.43
2022-08-20T02:34:22.578Z,17.44
2022-08-20T02:35:04.727Z,17.44
2022-08-20T02:36:03.724Z,17.44
2022-08-20T02:37:03.772Z,17.44
2022-08-20T02:38:03.746Z,17.40
2022-08-20T02:39:03.663Z,17.38
2022-08-20T02:40:03.708Z,17.35
2022-08-20T02:41:03.675Z,17.29
2022-08-20T02:42:03.625Z,17.26
2022-08-20T02:43:03.695Z,17.23
2022-08-20T02:44:03.605Z,17.22
2022-08-20T02:45:03.617Z,17.17
2022-08-20T02:46:03.597Z,17.15
2022-08-20T02:47:03.614Z,17.11
2022-08-20T02:48:03.556Z,17.08
2022-08-20T02:49:03.617Z,17.07
2022-08-20T02:50:03.544Z,17.00
2022-08-20T02:51:03.552Z,16.98
2022-08-20T02:52:03.543Z,16.95
2022-08-20T02:53:03.535Z,16.90
2022-08-20T02:54:04.226Z,16.88
2022-08-20T02:55:03.471Z,16.86
2022-08-20T02:56:03.467Z,16.83
2022-08-20T02:57:03.460Z,16.80
2022-08-20T02:58:03.427Z,16.77
2022-08-20T02:59:03.431Z,16.75
2022-08-20T03:00:03.398Z,16.73
2022-08-20T03:01:03.512Z,16.73
2022-08-20T03:02:03.366Z,16.73
2022-08-20T03:03:03.480Z,16.74
2022-08-20T03:04:03.342Z,16.75
2022-08-20T03:05:03.318Z,16.74
2022-08-20T03:06:03.306Z,16.74
2022-08-20T03:07:03.332Z,16.74
2022-08-20T03:08:03.326Z,16.73
2022-08-20T03:09:03.375Z,16.74
2022-08-20T03:10:03.374Z,16.74
2022-08-20T03:11:03.251Z,16.74
2022-08-20T03:12:03.302Z,16.73
2022-08-20T03:13:03.224Z,16.73
2022-08-20T03:14:03.212Z,16.73
2022-08-20T03:15:03.232Z,16.73
2022-08-20T03:16:03.191Z,16.73
2022-08-20T03:17:03.233Z,16.73
2022-08-20T03:18:03.233Z,16.73
2022-08-20T03:19:03.145Z,16.71
2022-08-20T03:20:03.138Z,16.71
2022-08-20T03:21:03.119Z,16.71
2022-08-20T03:22:03.150Z,16.71
2022-08-20T03:23:03.202Z,16.70
2022-08-20T03:24:03.107Z,16.71
2022-08-20T03:25:03.091Z,16.73
2022-08-20T03:26:03.048Z,16.73
2022-08-20T03:27:03.051Z,16.71
2022-08-20T03:28:03.118Z,16.71
2022-08-20T03:29:03.031Z,16.74
2022-08-20T03:30:02.989Z,16.74
2022-08-20T03:31:03.028Z,16.77
2022-08-20T03:32:07.191Z,16.77
2022-08-20T03:33:02.968Z,16.77
2022-08-20T03:34:02.939Z,16.75
2022-08-20T03:35:02.929Z,16.75
2022-08-20T03:36:02.979Z,16.74
2022-08-20T03:37:02.923Z,16.74
2022-08-20T03:38:03.400Z,16.73
2022-08-20T03:39:02.949Z,16.74
2022-08-20T03:40:02.942Z,16.74
2022-08-20T03:41:02.857Z,16.74
2022-08-20T03:42:02.840Z,16.74
2022-08-20T03:43:02.845Z,16.75
2022-08-20T03:44:02.903Z,16.77
2022-08-20T03:45:03.164Z,16.78
2022-08-20T03:46:02.860Z,16.81
2022-08-20T03:47:02.898Z,16.81
2022-08-20T03:48:03.024Z,16.81
2022-08-20T03:49:02.766Z,16.81
2022-08-20T03:50:02.784Z,16.81
2022-08-20T03:51:02.713Z,16.77
2022-08-20T03:52:02.777Z,16.77
2022-08-20T03:53:02.806Z,16.75
2022-08-20T03:54:02.692Z,16.73
2022-08-20T03:55:02.679Z,16.73
2022-08-20T03:56:02.695Z,16.73
2022-08-20T03:57:02.657Z,16.71
2022-08-20T03:58:02.629Z,16.68
2022-08-20T03:59:02.664Z,16.68
2022-08-20T04:00:02.586Z,16.68
2022-08-20T04:01:02.644Z,16.67
2022-08-20T04:02:02.672Z,16.65
2022-08-20T04:03:02.660Z,16.65
2022-08-20T04:04:02.632Z,16.65
2022-08-20T04:05:02.533Z,16.65
2022-08-20T04:06:02.513Z,16.65
2022-08-20T04:07:02.605Z,16.67
2022-08-20T04:08:03.418Z,16.67
2022-08-20T04:09:02.556Z,16.67
2022-08-20T04:10:02.457Z,16.67
2022-08-20T04:11:02.450Z,16.65
2022-08-20T04:12:02.429Z,16.67
2022-08-20T04:13:02.501Z,16.67
2022-08-20T04:14:02.462Z,16.68
2022-08-20T04:15:02.519Z,16.68
2022-08-20T04:16:02.380Z,16.71
2022-08-20T04:17:02.441Z,16.74
2022-08-20T04:18:02.403Z,16.74
2022-08-20T04:19:02.838Z,16.77
2022-08-20T04:20:02.350Z,16.77
2022-08-20T04:21:02.349Z,16.80
2022-08-20T04:22:02.304Z,16.81
2022-08-20T04:23:02.305Z,16.83
2022-08-20T04:24:02.492Z,16.85
2022-08-20T04:25:02.276Z,16.85
2022-08-20T04:26:02.267Z,16.86
2022-08-20T04:27:02.320Z,16.89
2022-08-20T04:28:02.228Z,16.90
2022-08-20T04:29:02.237Z,16.92
2022-08-20T04:30:02.221Z,16.92
2022-08-20T04:31:02.197Z,16.93
2022-08-20T04:32:02.801Z,16.95
2022-08-20T04:33:02.169Z,16.98
2022-08-20T04:34:02.197Z,17.00
2022-08-20T04:35:02.276Z,17.04
2022-08-20T04:36:02.156Z,17.07
2022-08-20T04:37:02.101Z,17.10
2022-08-20T04:38:02.138Z,17.13
2022-08-20T04:39:02.131Z,17.13
2022-08-20T04:40:02.107Z,17.15
2022-08-20T04:41:02.071Z,17.20
2022-08-20T04:42:02.129Z,17.23
2022-08-20T04:43:02.034Z,17.28
2022-08-20T04:44:02.013Z,17.32
2022-08-20T04:45:02.021Z,17.35
2022-08-20T04:46:02.005Z,17.40
2022-08-20T04:47:01.974Z,17.41
2022-08-20T04:48:01.982Z,17.46
2022-08-20T04:49:01.978Z,17.47
2022-08-20T04:50:01.962Z,17.48
2022-08-20T04:51:01.954Z,17.47
2022-08-20T04:52:01.985Z,17.46
2022-08-20T04:53:01.972Z,17.46
2022-08-20T04:54:01.976Z,17.46
2022-08-20T04:55:01.899Z,17.44
2022-08-20T04:56:01.855Z,17.47
2022-08-20T04:57:01.915Z,17.48
2022-08-20T04:58:01.831Z,17.51
2022-08-20T04:59:01.820Z,17.55
2022-08-20T05:00:01.815Z,17.57
2022-08-20T05:01:01.874Z,17.59
2022-08-20T05:02:01.798Z,17.59
2022-08-20T05:03:01.768Z,17.62
2022-08-20T05:04:01.874Z,17.63
2022-08-20T05:05:01.799Z,17.64
2022-08-20T05:06:01.755Z,17.59
2022-08-20T05:07:01.789Z,17.57
2022-08-20T05:08:01.863Z,17.53
2022-08-20T05:09:01.677Z,17.48
2022-08-20T05:10:01.723Z,17.48
2022-08-20T05:11:24.973Z,17.48
2022-08-20T05:12:02.718Z,17.48
2022-08-20T05:13:01.621Z,17.51
2022-08-20T05:14:01.618Z,17.54
2022-08-20T05:15:01.608Z,17.57
2022-08-20T05:16:01.680Z,17.62
2022-08-20T05:17:01.689Z,17.64
2022-08-20T05:18:01.644Z,17.69
2022-08-20T05:19:01.555Z,17.70
2022-08-20T05:20:01.549Z,17.73
2022-08-20T05:21:01.511Z,17.70
2022-08-20T05:22:01.653Z,17.71
2022-08-20T05:23:01.535Z,17.73
2022-08-20T05:24:01.504Z,17.76
2022-08-20T05:25:01.463Z,17.79
2022-08-20T05:26:01.505Z,17.84
2022-08-20T05:27:01.454Z,17.87
2022-08-20T05:28:01.447Z,17.89
2022-08-20T05:29:01.407Z,17.94
2022-08-20T05:30:01.407Z,17.99
2022-08-20T05:31:01.391Z,18.03
2022-08-20T05:32:01.523Z,18.09
2022-08-20T05:33:01.365Z,18.10
2022-08-20T05:34:01.510Z,18.10
2022-08-20T05:35:01.334Z,18.12
2022-08-20T05:36:01.311Z,18.15
2022-08-20T05:37:01.388Z,18.13
2022-08-20T05:38:01.316Z,18.12
2022-08-20T05:39:01.330Z,18.10
2022-08-20T05:40:01.321Z,18.12
2022-08-20T05:41:01.248Z,18.12
2022-08-20T05:42:01.272Z,18.15
2022-08-20T05:43:01.272Z,18.15
2022-08-20T05:44:01.560Z,18.15
2022-08-20T05:45:01.220Z,18.18
2022-08-20T05:46:01.181Z,18.22
2022-08-20T05:47:01.192Z,18.24
2022-08-20T05:48:03.412Z,18.27
2022-08-20T05:49:01.161Z,18.27
2022-08-20T05:50:01.167Z,18.31
2022-08-20T05:51:01.109Z,18.33
2022-08-20T05:52:01.121Z,18.36
2022-08-20T05:53:01.133Z,18.33
2022-08-20T05:54:01.101Z,18.34
2022-08-20T05:55:01.134Z,18.36
2022-08-20T05:56:01.103Z,18.40
2022-08-20T05:57:01.063Z,18.40
2022-08-20T05:58:01.050Z,18.42
2022-08-20T05:59:01.071Z,18.43
2022-08-20T06:00:01.114Z,18.46
2022-08-20T06:01:01.093Z,18.44
2022-08-20T06:02:00.994Z,18.44
2022-08-20T06:03:00.963Z,18.43
2022-08-20T06:04:00.947Z,18.44
2022-08-20T06:05:00.956Z,18.39
2022-08-20T06:06:00.927Z,18.36
2022-08-20T06:07:00.967Z,18.36
2022-08-20T06:08:07.307Z,18.34
2022-08-20T06:09:01.882Z,18.33
2022-08-20T06:10:00.940Z,18.33
2022-08-20T06:11:00.900Z,18.29
2022-08-20T06:12:00.837Z,18.33
2022-08-20T06:13:00.908Z,18.34
2022-08-20T06:14:00.827Z,18.34
2022-08-20T06:15:00.832Z,18.31
2022-08-20T06:16:00.911Z,18.34
2022-08-20T06:17:01.787Z,18.37
2022-08-20T06:18:01.676Z,18.40
2022-08-20T06:19:02.730Z,18.40
2022-08-20T06:20:00.771Z,18.40
2022-08-20T06:21:00.759Z,18.42
2022-08-20T06:22:00.953Z,18.44
2022-08-20T06:23:00.714Z,18.44
2022-08-20T06:24:02.231Z,18.44
2022-08-20T06:25:00.701Z,18.44
2022-08-20T06:26:00.664Z,18.46
2022-08-20T06:27:00.777Z,18.43
2022-08-20T06:28:00.679Z,18.44
2022-08-20T06:29:00.620Z,18.44
2022-08-20T06:30:01.465Z,18.49
2022-08-20T06:31:00.598Z,18.54
2022-08-20T06:32:00.586Z,18.58
2022-08-20T06:33:00.563Z,18.61
2022-08-20T06:34:00.734Z,18.59
2022-08-20T06:35:01.442Z,18.62
2022-08-20T06:36:00.605Z,18.61
2022-08-20T06:37:00.547Z,18.65
2022-08-20T06:38:00.543Z,18.67
2022-08-20T06:39:00.505Z,18.70
2022-08-20T06:40:00.653Z,18.74
2022-08-20T06:41:00.487Z,18.80
2022-08-20T06:42:00.447Z,18.83
2022-08-20T06:43:00.507Z,18.86
2022-08-20T06:44:00.475Z,18.84
2022-08-20T06:45:00.462Z,18.86
2022-08-20T06:46:00.496Z,18.90
2022-08-20T06:47:01.329Z,18.87
2022-08-20T06:48:01.230Z,18.90
2022-08-20T06:49:00.472Z,18.95
2022-08-20T06:50:00.395Z,18.98
2022-08-20T06:51:00.412Z,19.01
2022-08-20T06:52:00.380Z,19.06
2022-08-20T06:53:00.322Z,19.06
2022-08-20T06:54:00.348Z,19.10
2022-08-20T06:55:00.279Z,19.10
2022-08-20T06:56:00.331Z,19.05
2022-08-20T06:57:00.344Z,18.98
2022-08-20T06:58:00.310Z,18.92
2022-08-20T06:59:00.242Z,18.90
2022-08-20T07:00:00.254Z,18.90
2022-08-20T07:01:04.475Z,18.91
2022-08-20T07:02:01.183Z,18.92
2022-08-20T07:03:00.250Z,18.91
2022-08-20T07:04:00.244Z,18.91
2022-08-20T07:05:00.233Z,18.92
2022-08-20T07:06:00.209Z,18.97
2022-08-20T07:07:00.421Z,19.01
2022-08-20T07:08:00.117Z,19.01
2022-08-20T07:09:00.363Z,19.06
2022-08-20T07:10:00.132Z,19.10
2022-08-20T07:11:00.115Z,19.11
2022-08-20T07:12:00.977Z,19.11
2022-08-20T07:13:00.072Z,19.10
2022-08-20T07:14:00.116Z,19.10
2022-08-20T07:15:00.050Z,19.06
2022-08-20T07:16:00.006Z,19.08
2022-08-20T07:17:00.001Z,19.08
2022-08-20T07:18:01.450Z,19.10
2022-08-20T07:19:00.092Z,19.08
2022-08-20T07:19:59.999Z,19.08
2022-08-20T07:21:00.010Z,19.10
2022-08-20T07:22:00.174Z,19.11
2022-08-20T07:22:59.912Z,19.11
2022-08-20T07:23:59.905Z,19.13
2022-08-20T07:24:59.879Z,19.17
2022-08-20T07:25:59.880Z,19.17
2022-08-20T07:26:59.882Z,19.15
2022-08-20T07:27:59.855Z,19.20
2022-08-20T07:28:59.833Z,19.23
2022-08-20T07:29:59.816Z,19.25
2022-08-20T07:30:59.855Z,19.31
2022-08-20T07:32:00.856Z,19.35
2022-08-20T07:32:59.784Z,19.38
2022-08-20T07:33:59.885Z,19.46
2022-08-20T07:34:59.744Z,19.53
2022-08-20T07:35:59.735Z,19.57
2022-08-20T07:36:59.778Z,19.65
2022-08-20T07:37:59.743Z,19.65
2022-08-20T07:38:59.720Z,19.65
2022-08-20T07:40:00.726Z,19.66
2022-08-20T07:40:59.688Z,19.66
2022-08-20T07:41:59.676Z,19.68
2022-08-20T07:42:59.677Z,19.68
2022-08-20T07:43:59.629Z,19.72
2022-08-20T07:44:59.744Z,19.76
2022-08-20T07:45:59.649Z,19.78
2022-08-20T07:46:59.877Z,19.79
2022-08-20T07:47:59.646Z,19.84
2022-08-20T07:48:59.598Z,19.86
2022-08-20T07:49:59.689Z,19.90
2022-08-20T07:50:59.645Z,19.93
2022-08-20T07:51:59.867Z,19.98
2022-08-20T07:52:59.571Z,20.06
2022-08-20T07:53:59.528Z,20.12
2022-08-20T07:54:59.490Z,20.15
2022-08-20T07:55:59.625Z,20.21
2022-08-20T07:56:59.451Z,20.23
2022-08-20T07:57:59.492Z,20.27
2022-08-20T07:58:59.443Z,20.30
2022-08-20T07:59:59.421Z,20.28
2022-08-20T08:00:59.535Z,20.34
2022-08-20T08:01:59.411Z,20.41
2022-08-20T08:02:59.592Z,20.49
2022-08-20T08:03:59.413Z,20.51
2022-08-20T08:04:59.373Z,20.56
2022-08-20T08:05:59.396Z,20.53
2022-08-20T08:06:59.356Z,20.54
2022-08-20T08:07:59.314Z,20.54
2022-08-20T08:08:59.476Z,20.56
2022-08-20T08:09:59.343Z,20.61
2022-08-20T08:10:59.300Z,20.69
2022-08-20T08:11:59.316Z,20.69
2022-08-20T08:12:59.287Z,20.68
2022-08-20T08:13:59.256Z,20.76
2022-08-20T08:14:59.342Z,20.86
2022-08-20T08:15:59.309Z,20.93
2022-08-20T08:16:59.190Z,20.93
2022-08-20T08:17:59.192Z,20.95
2022-08-20T08:18:59.278Z,21.01
2022-08-20T08:19:59.177Z,21.11
2022-08-20T08:20:59.161Z,21.23
2022-08-20T08:21:59.151Z,21.27
2022-08-20T08:22:59.135Z,21.27
2022-08-20T08:23:59.186Z,21.29
2022-08-20T08:24:59.101Z,21.34
2022-08-20T08:25:59.080Z,21.35
2022-08-20T08:26:59.100Z,21.41
2022-08-20T08:27:59.084Z,21.50
2022-08-20T08:28:59.127Z,21.63
2022-08-20T08:29:59.113Z,21.72
2022-08-20T08:30:59.026Z,21.75
2022-08-20T08:31:59.000Z,21.72
2022-08-20T08:32:58.984Z,21.74
2022-08-20T08:33:59.004Z,21.91
2022-08-20T08:34:58.983Z,21.99
2022-08-20T08:35:59.121Z,22.14
2022-08-20T08:36:59.027Z,22.13
2022-08-20T08:37:58.923Z,21.99
2022-08-20T08:38:58.929Z,21.79
2022-08-20T08:39:59.085Z,21.82
2022-08-20T08:41:00.454Z,21.97
2022-08-20T08:41:58.948Z,22.07
2022-08-20T08:42:59.086Z,21.98
2022-08-20T08:43:58.928Z,22.12
2022-08-20T08:44:58.830Z,22.12
2022-08-20T08:45:58.833Z,22.06
2022-08-20T08:46:58.799Z,22.29
2022-08-20T08:47:58.793Z,22.34
2022-08-20T08:48:58.780Z,22.25
2022-08-20T08:49:58.759Z,22.07
2022-08-20T08:50:58.819Z,22.10
2022-08-20T08:51:58.739Z,22.23
2022-08-20T08:52:58.732Z,22.38
2022-08-20T08:54:04.662Z,22.49
2022-08-20T08:54:59.700Z,22.69
2022-08-20T08:55:58.813Z,22.90
2022-08-20T08:56:58.683Z,22.94
2022-08-20T08:57:58.653Z,22.96
2022-08-20T08:58:59.683Z,22.89
2022-08-20T09:00:03.872Z,22.94
2022-08-20T09:01:01.982Z,22.92
2022-08-20T09:01:59.730Z,22.83
2022-08-20T09:02:58.849Z,22.93
2022-08-20T09:03:58.662Z,23.08
2022-08-20T09:04:58.559Z,23.11
2022-08-20T09:05:58.609Z,23.12
2022-08-20T09:06:58.587Z,23.23
2022-08-20T09:07:58.553Z,23.26
2022-08-20T09:08:58.540Z,23.34
2022-08-20T09:09:58.497Z,23.35
2022-08-20T09:10:58.528Z,23.22
2022-08-20T09:11:58.585Z,23.15
2022-08-20T09:12:58.523Z,23.08
2022-08-20T09:13:58.452Z,23.08
2022-08-20T09:14:58.463Z,23.02
2022-08-20T09:15:58.583Z,22.96
2022-08-20T09:16:58.466Z,22.83
2022-08-20T09:17:58.599Z,22.82
2022-08-20T09:18:58.440Z,22.96
2022-08-20T09:19:58.670Z,22.99
2022-08-20T09:20:58.445Z,22.99
2022-08-20T09:21:58.467Z,22.84
2022-08-20T09:22:58.471Z,22.75
2022-08-20T09:23:58.332Z,22.75
2022-08-20T09:24:58.304Z,22.68
2022-08-20T09:25:58.373Z,22.67
2022-08-20T09:26:58.281Z,22.60
2022-08-20T09:27:58.375Z,22.68
2022-08-20T09:28:58.335Z,22.77
2022-08-20T09:29:58.327Z,22.75
2022-08-20T09:30:58.325Z,22.86
2022-08-20T09:31:59.315Z,22.77
2022-08-20T09:32:58.488Z,22.84
2022-08-20T09:33:58.217Z,22.89
2022-08-20T09:34:58.219Z,22.99
2022-08-20T09:35:58.189Z,23.12
2022-08-20T09:36:58.139Z,23.22
2022-08-20T09:37:58.320Z,23.04
2022-08-20T09:38:58.126Z,23.01
2022-08-20T09:39:58.134Z,22.92
2022-08-20T09:40:58.159Z,22.92
2022-08-20T09:41:58.118Z,22.83
2022-08-20T09:42:58.418Z,22.69
2022-08-20T09:43:58.091Z,22.59
2022-08-20T09:44:58.113Z,22.50
2022-08-20T09:45:58.172Z,22.57
2022-08-20T09:46:58.031Z,22.49
2022-08-20T09:47:58.158Z,22.56
2022-08-20T09:48:57.981Z,22.47
2022-08-20T09:49:57.973Z,22.52
2022-08-20T09:50:57.976Z,22.57
2022-08-20T09:51:57.945Z,22.69
2022-08-20T09:52:57.941Z,22.75
2022-08-20T09:53:57.947Z,22.77
2022-08-20T09:54:57.927Z,22.89
2022-08-20T09:55:57.937Z,22.99
2022-08-20T09:56:57.885Z,23.07
2022-08-20T09:57:58.293Z,23.08
2022-08-20T09:59:02.306Z,23.09
2022-08-20T09:59:58.871Z,23.09
2022-08-20T10:00:57.898Z,23.09
2022-08-20T10:01:57.910Z,23.17
2022-08-20T10:02:57.864Z,23.04
2022-08-20T10:03:57.785Z,22.97
2022-08-20T10:04:57.872Z,22.84
2022-08-20T10:05:57.778Z,22.93
2022-08-20T10:06:57.827Z,22.86
2022-08-20T10:07:57.901Z,22.87
2022-08-20T10:08:57.791Z,22.99
2022-08-20T10:09:57.842Z,23.14
2022-08-20T10:10:57.718Z,23.35
2022-08-20T10:11:57.681Z,23.53
2022-08-20T10:12:57.673Z,23.65
2022-08-20T10:13:57.700Z,23.61
2022-08-20T10:14:57.725Z,23.49
2022-08-20T10:15:57.645Z,23.32
2022-08-20T10:16:59.907Z,23.35
2022-08-20T10:17:57.880Z,23.38
2022-08-20T10:18:57.725Z,23.43
2022-08-20T10:19:57.579Z,23.50
2022-08-20T10:20:57.663Z,23.60
2022-08-20T10:21:57.556Z,23.53
2022-08-20T10:22:57.604Z,23.61
2022-08-20T10:23:57.580Z,23.70
2022-08-20T10:24:57.533Z,23.79
2022-08-20T10:25:57.557Z,23.75
2022-08-20T10:26:57.486Z,23.75
2022-08-20T10:27:57.689Z,23.71
2022-08-20T10:28:57.476Z,23.82
2022-08-20T10:29:57.539Z,23.90
2022-08-20T10:30:57.464Z,23.83
2022-08-20T10:31:57.430Z,23.58
2022-08-20T10:32:57.428Z,23.50
2022-08-20T10:33:57.428Z,23.53
2022-08-20T10:34:57.416Z,23.64
2022-08-20T10:36:00.034Z,23.76
2022-08-20T10:36:57.449Z,23.85
2022-08-20T10:37:57.507Z,23.92
2022-08-20T10:38:57.358Z,23.97
2022-08-20T10:39:57.458Z,23.82
2022-08-20T10:40:57.320Z,23.71
2022-08-20T10:41:57.340Z,23.72
2022-08-20T10:42:57.282Z,23.80
2022-08-20T10:43:57.306Z,23.94
2022-08-20T10:44:57.272Z,23.95
2022-08-20T10:45:57.274Z,23.97
2022-08-20T10:46:57.387Z,23.95
2022-08-20T10:47:57.337Z,23.97
2022-08-20T10:48:58.067Z,24.08
2022-08-20T10:49:57.255Z,24.05
2022-08-20T10:50:57.257Z,24.00
2022-08-20T10:51:57.256Z,24.02
2022-08-20T10:52:57.157Z,24.08
2022-08-20T10:53:57.138Z,24.01
2022-08-20T10:54:57.197Z,23.80
2022-08-20T10:55:57.277Z,23.62
2022-08-20T10:56:57.140Z,23.60
2022-08-20T10:57:57.249Z,23.65
2022-08-20T10:58:57.076Z,23.77
2022-08-20T10:59:57.053Z,23.79
2022-08-20T11:00:58.519Z,23.70
2022-08-20T11:01:57.075Z,23.79
2022-08-20T11:02:57.065Z,23.90
2022-08-20T11:03:57.024Z,24.05
2022-08-20T11:04:57.003Z,24.04
2022-08-20T11:05:57.054Z,24.04
2022-08-20T11:06:57.011Z,24.05
2022-08-20T11:07:56.987Z,24.01
2022-08-20T11:08:57.245Z,24.02
2022-08-20T11:09:56.975Z,24.16
2022-08-20T11:10:56.916Z,24.31
2022-08-20T11:11:56.962Z,24.35
2022-08-20T11:12:56.938Z,24.37
2022-08-20T11:13:56.934Z,24.24
2022-08-20T11:14:56.920Z,24.27
2022-08-20T11:15:56.985Z,24.34
2022-08-20T11:16:56.890Z,24.56
2022-08-20T11:17:57.068Z,24.73
2022-08-20T11:18:56.837Z,24.69
2022-08-20T11:19:56.795Z,24.83
2022-08-20T11:20:56.783Z,24.94
2022-08-20T11:21:56.799Z,25.05
2022-08-20T11:22:56.756Z,25.09
2022-08-20T11:23:59.862Z,24.61
2022-08-20T11:24:57.767Z,24.47
2022-08-20T11:25:56.782Z,24.32
2022-08-20T11:26:57.493Z,24.12
2022-08-20T11:27:56.927Z,24.32
2022-08-20T11:28:56.699Z,24.59
2022-08-20T11:29:56.660Z,24.80
2022-08-20T11:30:56.675Z,24.92
2022-08-20T11:31:56.671Z,25.25
2022-08-20T11:32:56.655Z,25.62
2022-08-20T11:33:56.624Z,25.98
2022-08-20T11:34:56.594Z,26.22
2022-08-20T11:35:56.631Z,26.47
2022-08-20T11:36:56.657Z,26.69
2022-08-20T11:37:56.793Z,26.61
2022-08-20T11:38:56.557Z,26.49
2022-08-20T11:39:56.790Z,26.47
2022-08-20T11:40:56.559Z,26.25
2022-08-20T11:41:56.528Z,26.37
2022-08-20T11:44:19.974Z,26.59
2022-08-20T11:44:57.519Z,26.81
2022-08-20T11:45:56.476Z,26.99
2022-08-20T11:46:56.458Z,27.11
2022-08-20T11:47:56.588Z,26.91
2022-08-20T11:48:56.433Z,26.73
2022-08-20T11:49:56.427Z,26.17
2022-08-20T11:50:56.441Z,26.11
2022-08-20T11:51:56.413Z,26.37
2022-08-20T11:52:56.432Z,26.77
2022-08-20T11:53:56.387Z,27.06
2022-08-20T11:54:56.380Z,27.24
2022-08-20T11:55:56.332Z,27.50
2022-08-20T11:56:56.312Z,27.67
2022-08-20T11:57:56.419Z,27.92
2022-08-20T11:58:56.352Z,28.04
2022-08-20T11:59:56.274Z,28.16
2022-08-20T12:00:56.318Z,28.28
2022-08-20T12:02:03.305Z,28.33
2022-08-20T12:02:57.449Z,28.28
2022-08-20T12:03:56.234Z,28.47
2022-08-20T12:04:56.237Z,28.50
2022-08-20T12:05:56.203Z,28.53
2022-08-20T12:06:56.217Z,28.73
2022-08-20T12:07:56.196Z,28.84
2022-08-20T12:08:56.184Z,27.96
2022-08-20T12:09:56.146Z,27.73
2022-08-20T12:10:56.145Z,27.57
2022-08-20T12:11:56.151Z,27.58
2022-08-20T12:12:56.652Z,27.88
2022-08-20T12:13:56.139Z,28.14
2022-08-20T12:14:56.085Z,27.96
2022-08-20T12:15:56.067Z,27.73
2022-08-20T12:16:56.117Z,27.26
2022-08-20T12:17:56.053Z,26.92
2022-08-20T12:18:56.102Z,26.32
2022-08-20T12:19:56.020Z,26.08
2022-08-20T12:20:56.007Z,25.99
2022-08-20T12:21:56.049Z,25.79
2022-08-20T12:22:56.239Z,25.44
2022-08-20T12:23:55.994Z,25.10
2022-08-20T12:24:56.035Z,24.42
2022-08-20T12:25:55.995Z,23.79
2022-08-20T12:26:55.964Z,23.40
2022-08-20T12:27:55.961Z,23.05
2022-08-20T12:28:55.977Z,22.93
2022-08-20T12:29:55.956Z,22.60
2022-08-20T12:30:55.908Z,22.37
2022-08-20T12:31:55.876Z,22.13
2022-08-20T12:32:56.128Z,21.75
2022-08-20T12:33:55.846Z,21.50
2022-08-20T12:34:55.879Z,21.45
2022-08-20T12:35:55.873Z,21.34
2022-08-20T12:36:55.881Z,21.29
2022-08-20T12:37:55.801Z,21.21
2022-08-20T12:38:55.800Z,21.02
2022-08-20T12:39:55.913Z,20.76
2022-08-20T12:40:55.754Z,20.72
2022-08-20T12:41:56.560Z,20.65
2022-08-20T12:42:55.819Z,20.43
2022-08-20T12:43:55.784Z,20.33
2022-08-20T12:44:55.733Z,20.38
2022-08-20T12:45:55.703Z,20.41
2022-08-20T12:46:55.744Z,20.35
2022-08-20T12:47:55.674Z,20.16
2022-08-20T12:48:55.728Z,19.73
2022-08-20T12:49:55.633Z,19.48
2022-08-20T12:50:55.637Z,19.21
2022-08-20T12:51:55.720Z,18.95
2022-08-20T12:52:55.918Z,18.86